Time;durP1;ratioP1;P1;durP2;ratioP2;P2;SDS_P1;SDS_P2;PMS_P1;PMS_P2;Temp;Humidity;BMP_temperature;BMP_pressure;BME280_temperature;BME280_humidity;BME280_pressure;Samples;Min_cycle;Max_cycle;Signal;HPM_P1;HPM_P2
2022/07/07 00:00:08;;;;;;;12.00;7.22;;;;;;;28.25;69.42;100502.57;1722095;83;21608;-72
2022/07/07 00:02:35;;;;;;;12.37;7.20;;;;;;;28.21;69.84;100496.00;1722294;83;21072;-73
2022/07/07 00:05:02;;;;;;;14.38;7.15;;;;;;;28.19;69.32;100490.07;1721869;83;21008;-74
2022/07/07 00:07:29;;;;;;;13.90;6.90;;;;;;;28.05;68.92;100489.06;1721929;83;21084;-74
2022/07/07 00:09:56;;;;;;;14.40;7.30;;;;;;;28.04;68.25;100482.96;1722235;83;21043;-74
2022/07/07 00:12:23;;;;;;;13.45;6.90;;;;;;;28.05;67.93;100479.80;1721879;83;21111;-73
2022/07/07 00:14:50;;;;;;;11.65;6.80;;;;;;;27.94;68.09;100481.06;1722333;83;21091;-73
2022/07/07 00:17:17;;;;;;;13.58;7.30;;;;;;;27.84;68.09;100477.36;1721821;83;21220;-74
2022/07/07 00:19:44;;;;;;;10.35;6.70;;;;;;;27.72;67.65;100479.62;1721905;83;21083;-74
2022/07/07 00:22:11;;;;;;;9.73;6.65;;;;;;;27.75;67.16;100480.56;1722269;83;21495;-73
2022/07/07 00:24:38;;;;;;;13.78;6.65;;;;;;;27.41;67.55;100474.44;1721609;83;21094;-74
2022/07/07 00:27:05;;;;;;;11.25;6.55;;;;;;;27.17;68.47;100474.95;1722018;83;21032;-75
2022/07/07 00:29:32;;;;;;;10.50;7.03;;;;;;;27.25;68.73;100472.78;1721734;83;21031;-75
2022/07/07 00:31:59;;;;;;;12.85;6.60;;;;;;;27.34;68.58;100474.84;1721893;83;21032;-74
2022/07/07 00:34:25;;;;;;;13.35;6.53;;;;;;;27.23;68.72;100475.22;1722085;83;21690;-75
2022/07/07 00:36:52;;;;;;;11.08;6.22;;;;;;;27.15;68.22;100473.48;1722424;83;21020;-75
2022/07/07 00:39:19;;;;;;;14.65;6.95;;;;;;;27.37;68.10;100472.67;1721955;83;21552;-74
2022/07/07 00:41:46;;;;;;;13.05;7.22;;;;;;;27.37;68.00;100471.35;1722148;83;21377;-75
2022/07/07 00:44:14;;;;;;;9.58;6.37;;;;;;;27.34;67.50;100476.16;1721895;83;21107;-75
2022/07/07 00:46:46;;;;;;;13.18;6.58;;;;;;;27.34;68.26;100473.52;1721643;83;21064;-75
2022/07/07 00:49:14;;;;;;;12.43;6.78;;;;;;;27.00;69.41;100477.87;1721933;83;21095;-75
2022/07/07 00:51:42;;;;;;;13.00;6.22;;;;;;;26.74;70.67;100479.02;1721621;83;21637;-75
2022/07/07 00:54:10;;;;;;;7.53;6.47;;;;;;;26.69;71.21;100484.02;1722112;83;21080;-74
2022/07/07 00:56:39;;;;;;;7.22;6.10;;;;;;;26.79;70.34;100480.66;1721599;83;21563;-75
2022/07/07 00:59:07;;;;;;;11.90;6.40;;;;;;;26.82;70.61;100484.77;1722052;83;21515;-75
2022/07/07 01:01:38;;;;;;;13.05;6.20;;;;;;;26.85;70.69;100485.23;1721737;83;21103;-75
2022/07/07 01:04:08;;;;;;;11.25;6.03;;;;;;;27.54;69.69;100491.03;1693552;83;21550;-75
2022/07/07 01:06:36;;;;;;;8.60;6.40;;;;;;;27.17;70.09;100493.95;1721500;83;21075;-75
2022/07/07 01:09:04;;;;;;;9.53;6.80;;;;;;;27.36;70.11;100493.48;1720658;83;21048;-75
2022/07/07 01:11:51;;;;;;;13.10;7.12;;;;;;;27.57;70.76;100490.66;1721741;83;21138;-75
2022/07/07 01:14:18;;;;;;;8.20;6.60;;;;;;;27.48;71.55;100499.17;1720805;83;21058;-74
2022/07/07 01:16:47;;;;;;;11.68;6.83;;;;;;;27.47;72.57;100496.70;1721892;83;21106;-74
2022/07/07 01:19:15;;;;;;;15.90;6.97;;;;;;;27.40;73.43;100497.11;1721699;83;21507;-75
2022/07/07 01:22:16;;;;;;;10.28;6.85;;;;;;;27.39;73.82;100498.91;1721955;83;21052;-75
2022/07/07 01:24:43;;;;;;;11.48;6.97;;;;;;;27.26;73.98;100504.80;1693398;83;21099;-75
2022/07/07 01:27:20;;;;;;;11.00;7.58;;;;;;;27.11;75.25;100497.27;1721419;83;21079;-75
2022/07/07 01:29:51;;;;;;;18.60;7.30;;;;;;;27.18;75.26;100497.72;1721776;83;21523;-75
2022/07/07 01:32:19;;;;;;;9.70;7.30;;;;;;;27.20;75.51;100494.91;1721502;83;21507;-75
2022/07/07 01:34:48;;;;;;;11.12;7.12;;;;;;;27.14;76.55;100500.89;1721926;83;21619;-75
2022/07/07 01:37:16;;;;;;;11.25;7.15;;;;;;;27.18;77.95;100504.83;1722093;83;21832;-75
2022/07/07 01:39:44;;;;;;;16.48;7.10;;;;;;;27.33;77.31;100502.27;1721472;83;21083;-75
2022/07/07 01:42:12;;;;;;;11.48;6.22;;;;;;;27.33;76.36;100499.62;1721605;83;21086;-75
2022/07/07 01:44:42;;;;;;;11.85;6.40;;;;;;;27.22;74.32;100504.80;1721470;83;21075;-75
2022/07/07 01:47:11;;;;;;;12.37;6.42;;;;;;;27.43;72.36;100504.66;1721538;83;21058;-75
2022/07/07 01:49:39;;;;;;;12.80;6.17;;;;;;;27.37;70.90;100506.19;1721717;83;21047;-74
2022/07/07 01:52:07;;;;;;;12.28;6.53;;;;;;;27.23;71.40;100502.53;1721756;83;21055;-75
2022/07/07 01:54:36;;;;;;;8.90;6.50;;;;;;;27.62;67.49;100508.14;1717069;82;21123;-74
2022/07/07 01:57:05;;;;;;;8.65;6.53;;;;;;;26.97;70.97;100513.41;1721855;83;21064;-75
2022/07/07 01:59:33;;;;;;;10.05;6.55;;;;;;;26.79;71.06;100514.98;1721613;83;21024;-76
2022/07/07 02:02:00;;;;;;;17.32;6.67;;;;;;;26.72;71.82;100507.42;1721687;83;21535;-74
2022/07/07 02:04:27;;;;;;;11.93;6.78;;;;;;;26.98;71.64;100513.20;1721153;83;21086;-76
2022/07/07 02:06:55;;;;;;;12.30;6.80;;;;;;;27.00;72.00;100512.22;1721653;83;21098;-75
2022/07/07 02:09:22;;;;;;;12.98;6.62;;;;;;;26.82;72.64;100509.84;1717266;82;21039;-74
2022/07/07 02:11:50;;;;;;;13.10;6.22;;;;;;;26.75;72.72;100512.38;1721541;83;21059;-75
2022/07/07 02:14:19;;;;;;;11.57;6.47;;;;;;;26.91;72.20;100511.46;1721464;83;21519;-75
2022/07/07 02:16:48;;;;;;;13.25;7.05;;;;;;;26.52;73.86;100505.19;1721404;83;21532;-75
2022/07/07 02:19:15;;;;;;;10.98;6.50;;;;;;;26.70;73.07;100507.62;1721368;83;21032;-75
2022/07/07 02:21:42;;;;;;;6.92;6.22;;;;;;;26.45;75.53;100504.72;1721205;83;21052;-75
2022/07/07 02:24:10;;;;;;;9.38;7.10;;;;;;;26.44;75.93;100503.06;1721570;83;21559;-74
2022/07/07 02:26:38;;;;;;;15.98;7.33;;;;;;;26.49;76.37;100504.20;1721686;83;21279;-74
2022/07/07 02:29:05;;;;;;;12.65;6.60;;;;;;;26.54;76.06;100503.20;1721729;83;21503;-73
2022/07/07 02:31:34;;;;;;;10.15;6.72;;;;;;;26.67;75.73;100511.09;1721659;83;21123;-73
2022/07/07 02:34:01;;;;;;;13.65;7.12;;;;;;;26.73;75.48;100511.72;1721729;83;21124;-72
2022/07/07 02:36:28;;;;;;;12.18;6.37;;;;;;;26.93;74.72;100512.92;1721930;83;21153;-74
2022/07/07 02:38:55;;;;;;;14.78;7.00;;;;;;;27.09;72.49;100521.25;1721397;83;21098;-74
2022/07/07 02:41:22;;;;;;;10.60;6.78;;;;;;;26.95;73.54;100512.25;1720725;83;21007;-74
2022/07/07 02:43:51;;;;;;;13.62;6.65;;;;;;;26.95;73.48;100514.89;1711731;83;21091;-74
2022/07/07 02:46:18;;;;;;;13.10;6.87;;;;;;;27.11;72.86;100514.45;1683033;83;21016;-73
2022/07/07 02:48:45;;;;;;;11.05;7.05;;;;;;;27.08;73.39;100520.09;1690769;83;21100;-74
2022/07/07 02:51:12;;;;;;;9.80;6.50;;;;;;;27.05;72.86;100513.83;1693290;84;21051;-74
2022/07/07 02:53:39;;;;;;;9.85;6.80;;;;;;;27.40;72.58;100511.14;1695122;84;21078;-73
2022/07/07 02:56:07;;;;;;;13.58;6.97;;;;;;;27.44;72.89;100514.25;1683614;84;21054;-73
2022/07/07 02:58:34;;;;;;;9.45;6.85;;;;;;;27.52;72.81;100511.55;1693388;84;21083;-73
2022/07/07 03:01:01;;;;;;;8.48;6.33;;;;;;;27.62;73.02;100513.44;1688720;84;21113;-71
2022/07/07 03:03:28;;;;;;;13.30;6.78;;;;;;;29.55;67.42;100518.46;1691957;84;22252;-74
2022/07/07 03:05:55;;;;;;;11.95;6.55;;;;;;;28.12;69.47;100511.13;1685671;83;21039;-73
2022/07/07 03:08:23;;;;;;;15.98;7.37;;;;;;;27.91;70.69;100507.89;1700159;84;21561;-73
2022/07/07 03:10:50;;;;;;;8.18;7.17;;;;;;;27.88;71.51;100513.53;1697894;83;21078;-73
2022/07/07 03:13:17;;;;;;;10.53;7.67;;;;;;;27.87;72.48;100514.05;1707593;82;21059;-75
2022/07/07 03:15:44;;;;;;;12.68;7.50;;;;;;;27.97;72.16;100506.66;1721829;83;21051;-74
2022/07/07 03:18:11;;;;;;;14.68;7.78;;;;;;;28.27;70.44;100505.86;1721695;83;21103;-73
2022/07/07 03:20:38;;;;;;;12.73;7.50;;;;;;;30.20;65.80;100509.53;1721920;83;21077;-73
2022/07/07 03:23:05;;;;;;;13.93;7.83;;;;;;;30.52;64.22;100514.70;1721530;83;21012;-73
2022/07/07 03:25:34;;;;;;;11.93;7.90;;;;;;;30.50;63.74;100518.07;1721631;83;21087;-73
2022/07/07 03:28:01;;;;;;;12.07;7.58;;;;;;;30.65;63.17;100521.89;1721768;83;21012;-74
2022/07/07 03:30:31;;;;;;;12.47;8.03;;;;;;;30.71;63.10;100522.42;1698499;83;21009;-73
2022/07/07 03:33:00;;;;;;;13.70;7.75;;;;;;;30.92;62.76;100517.00;1699143;83;21051;-75
2022/07/07 03:35:27;;;;;;;16.02;7.60;;;;;;;31.04;62.31;100521.19;1715882;83;21099;-73
2022/07/07 03:37:54;;;;;;;11.90;6.90;;;;;;;31.06;61.90;100524.98;1721276;83;21019;-73
2022/07/07 03:40:21;;;;;;;15.60;7.53;;;;;;;30.98;62.30;100524.66;1721855;83;21032;-74
2022/07/07 03:42:49;;;;;;;9.43;7.03;;;;;;;31.02;62.43;100532.54;1721318;83;21052;-74
2022/07/07 03:45:16;;;;;;;16.02;7.30;;;;;;;29.41;65.47;100537.93;1721149;83;21071;-74
2022/07/07 03:47:44;;;;;;;11.20;7.17;;;;;;;29.05;67.83;100536.12;1721754;83;21570;-73
2022/07/07 03:50:11;;;;;;;11.15;7.12;;;;;;;31.09;63.44;100535.23;1720324;83;21508;-73
2022/07/07 03:52:38;;;;;;;8.83;7.50;;;;;;;31.55;62.67;100538.48;1714474;84;21107;-75
2022/07/07 03:55:08;;;;;;;13.95;6.87;;;;;;;29.41;67.71;100544.55;1714790;84;21062;-75
2022/07/07 03:57:36;;;;;;;12.45;6.92;;;;;;;29.53;68.60;100540.89;1714283;84;21079;-73
2022/07/07 04:00:06;;;;;;;12.70;7.15;;;;;;;29.39;69.75;100543.12;1716231;83;21036;-74
2022/07/07 04:02:35;;;;;;;14.05;7.00;;;;;;;29.87;68.95;100548.13;1714540;84;21027;-73
2022/07/07 04:05:03;;;;;;;12.13;6.83;;;;;;;29.81;70.13;100541.45;1714735;84;21080;-73
2022/07/07 04:07:30;;;;;;;15.05;7.12;;;;;;;29.80;70.01;100542.45;1714481;84;21492;-74
2022/07/07 04:09:57;;;;;;;15.43;7.12;;;;;;;29.91;70.62;100537.95;1714836;84;21543;-73
2022/07/07 04:12:24;;;;;;;11.93;7.42;;;;;;;30.06;70.33;100544.47;1714444;84;21052;-74
2022/07/07 04:14:51;;;;;;;9.80;7.30;;;;;;;30.11;70.48;100538.89;1715016;84;22681;-74
2022/07/07 04:17:18;;;;;;;15.80;7.58;;;;;;;30.17;69.96;100543.91;1714459;84;21072;-73
2022/07/07 04:19:46;;;;;;;16.20;7.55;;;;;;;30.20;69.99;100536.08;1714499;84;21020;-73
2022/07/07 04:22:13;;;;;;;13.00;7.90;;;;;;;30.23;69.73;100535.19;1714594;84;21516;-73
2022/07/07 04:24:40;;;;;;;10.63;7.50;;;;;;;30.32;69.80;100535.86;1714231;84;21135;-73
2022/07/07 04:27:09;;;;;;;13.38;8.10;;;;;;;30.21;69.96;100539.03;1714516;84;21028;-74
2022/07/07 04:29:36;;;;;;;11.20;7.83;;;;;;;30.45;70.58;100536.42;1714211;84;21094;-74
2022/07/07 04:32:06;;;;;;;22.42;8.30;;;;;;;30.31;71.41;100535.05;1714523;83;21081;-73
2022/07/07 04:34:33;;;;;;;19.73;8.08;;;;;;;30.34;70.46;100530.66;1714538;84;21036;-73
2022/07/07 04:37:00;;;;;;;13.18;7.47;;;;;;;30.45;69.27;100530.59;1714625;84;21060;-74
2022/07/07 04:39:28;;;;;;;11.63;7.22;;;;;;;30.59;68.00;100534.64;1714563;84;21607;-73
2022/07/07 04:41:55;;;;;;;11.00;6.78;;;;;;;30.62;66.01;100528.92;1714633;84;21044;-72
2022/07/07 04:44:22;;;;;;;11.75;6.42;;;;;;;30.71;65.23;100527.22;1701294;82;21069;-74
2022/07/07 04:46:49;;;;;;;10.55;6.20;;;;;;;30.70;60.59;100531.43;1706392;83;21156;-74
2022/07/07 04:49:17;;;;;;;9.28;5.92;;;;;;;30.88;60.45;100535.70;1722001;83;21012;-74
2022/07/07 04:51:44;;;;;;;12.98;5.75;;;;;;;31.01;60.63;100530.11;1721520;83;21060;-73
2022/07/07 04:54:11;;;;;;;11.55;5.22;;;;;;;31.11;58.64;100538.51;1722038;83;21522;-74
2022/07/07 04:56:39;;;;;;;11.83;5.87;;;;;;;31.20;56.87;100539.94;1721638;83;21090;-74
2022/07/07 04:59:08;;;;;;;9.80;5.05;;;;;;;31.31;55.53;100540.67;1714868;83;21028;-75
2022/07/07 05:01:36;;;;;;;7.03;5.10;;;;;;;31.31;52.59;100542.52;1720891;83;21088;-74
2022/07/07 05:04:03;;;;;;;8.38;4.67;;;;;;;31.34;52.12;100544.25;1721464;83;21060;-74
2022/07/07 05:06:30;;;;;;;7.22;4.87;;;;;;;31.29;51.07;100541.39;1721383;83;21083;-74
2022/07/07 05:08:58;;;;;;;10.20;4.87;;;;;;;31.48;51.35;100546.95;1721603;83;21599;-74
2022/07/07 05:11:25;;;;;;;8.48;4.95;;;;;;;31.63;51.98;100546.25;1721553;83;21048;-74
2022/07/07 05:13:52;;;;;;;8.85;5.17;;;;;;;31.61;51.50;100546.13;1721218;83;21028;-73
2022/07/07 05:16:19;;;;;;;11.08;4.85;;;;;;;32.12;50.80;100550.30;1721572;83;21075;-75
2022/07/07 05:18:46;;;;;;;8.38;4.45;;;;;;;31.84;50.77;100545.72;1721265;83;21020;-75
2022/07/07 05:21:14;;;;;;;13.70;4.75;;;;;;;31.57;50.74;100553.72;1707083;82;21060;-74
2022/07/07 05:23:41;;;;;;;9.50;4.33;;;;;;;31.85;48.58;100549.48;1721648;83;21071;-75
2022/07/07 05:26:10;;;;;;;10.20;3.90;;;;;;;31.92;49.65;100548.16;1712491;83;21032;-74
2022/07/07 05:28:41;;;;;;;12.13;4.53;;;;;;;31.85;48.10;100550.00;1721775;83;21709;-74
2022/07/07 05:31:12;;;;;;;7.25;4.67;;;;;;;31.99;47.78;100547.62;1707078;83;21507;-74
2022/07/07 05:33:41;;;;;;;7.78;3.72;;;;;;;32.07;48.52;100546.09;1707570;83;21058;-75
2022/07/07 05:36:09;;;;;;;9.98;4.25;;;;;;;32.08;48.07;100546.41;1695266;82;21042;-74
2022/07/07 05:38:37;;;;;;;10.88;4.20;;;;;;;32.29;48.17;100547.17;1700442;83;20992;-74
2022/07/07 05:41:05;;;;;;;6.42;3.95;;;;;;;32.16;47.88;100548.05;1700835;83;21067;-74
2022/07/07 05:43:32;;;;;;;10.78;3.85;;;;;;;32.44;46.73;100546.91;1694923;83;20973;-74
2022/07/07 05:46:01;;;;;;;5.12;3.60;;;;;;;32.48;47.58;100547.62;1696790;83;21083;-74
2022/07/07 05:48:28;;;;;;;10.05;3.90;;;;;;;32.57;46.88;100535.43;1696217;83;21050;-73
2022/07/07 05:50:56;;;;;;;12.37;3.70;;;;;;;32.65;46.16;100546.66;1689817;83;21064;-75
2022/07/07 05:53:23;;;;;;;7.75;3.60;;;;;;;32.91;46.21;100546.22;1699194;83;21048;-75
2022/07/07 05:55:50;;;;;;;11.10;3.52;;;;;;;32.98;47.08;100544.84;1694986;83;21498;-74
2022/07/07 05:58:18;;;;;;;8.63;3.70;;;;;;;32.86;46.13;100548.17;1685678;82;21031;-75
2022/07/07 06:00:45;;;;;;;6.85;3.80;;;;;;;33.03;46.07;100541.00;1673968;84;21011;-74
2022/07/07 06:03:12;;;;;;;6.45;3.90;;;;;;;33.09;45.97;100547.67;1689402;83;21028;-75
2022/07/07 06:05:40;;;;;;;9.88;3.70;;;;;;;33.25;46.08;100542.30;1703571;83;21488;-73
2022/07/07 06:08:07;;;;;;;7.53;3.67;;;;;;;33.07;44.10;100539.53;1712007;83;21048;-74
2022/07/07 06:10:36;;;;;;;6.33;3.87;;;;;;;33.24;45.31;100530.02;1708294;83;21053;-74
2022/07/07 06:13:03;;;;;;;6.20;3.58;;;;;;;33.32;45.11;100540.41;1667824;84;21089;-74
2022/07/07 06:15:33;;;;;;;12.35;4.17;;;;;;;33.27;45.49;100534.94;1654275;85;21118;-74
2022/07/07 06:18:05;;;;;;;4.00;3.60;;;;;;;33.39;45.37;100529.69;1645495;86;21035;-74
2022/07/07 06:20:32;;;;;;;10.03;4.03;;;;;;;33.38;45.53;100534.73;1697575;83;21020;-74
2022/07/07 06:22:59;;;;;;;6.70;3.60;;;;;;;33.34;45.31;100528.20;1696550;83;21000;-74
2022/07/07 06:25:27;;;;;;;8.90;3.20;;;;;;;33.44;45.90;100533.05;1693673;84;21084;-75
2022/07/07 06:27:54;;;;;;;8.05;3.47;;;;;;;33.18;44.16;100533.55;1692111;84;21131;-75
2022/07/07 06:30:21;;;;;;;9.33;3.00;;;;;;;33.40;41.46;100530.00;1669545;85;21006;-75
2022/07/07 06:32:48;;;;;;;5.65;3.22;;;;;;;33.48;42.45;100532.39;1661194;84;21087;-75
2022/07/07 06:35:15;;;;;;;6.15;3.27;;;;;;;33.69;42.36;100531.20;1664338;85;21090;-76
2022/07/07 06:37:42;;;;;;;6.75;2.90;;;;;;;33.72;42.52;100533.44;1680836;83;21092;-77
2022/07/07 06:40:11;;;;;;;5.90;2.90;;;;;;;33.81;41.13;100537.97;1675120;83;21160;-75
2022/07/07 06:42:38;;;;;;;6.12;3.00;;;;;;;33.87;40.74;100538.95;1669041;85;21058;-75
2022/07/07 06:45:08;;;;;;;6.33;2.65;;;;;;;33.93;41.46;100536.73;1668279;84;21090;-76
2022/07/07 06:47:35;;;;;;;5.75;2.77;;;;;;;33.91;40.04;100532.13;1668126;84;21197;-74
2022/07/07 06:50:03;;;;;;;6.60;2.98;;;;;;;33.93;39.61;100536.73;1668523;85;21046;-75
2022/07/07 06:52:30;;;;;;;6.83;2.52;;;;;;;34.04;39.32;100539.98;1683747;85;21549;-75
2022/07/07 06:54:57;;;;;;;7.15;2.47;;;;;;;34.07;38.36;100536.88;1689262;83;21057;-75
2022/07/07 06:57:24;;;;;;;8.23;2.90;;;;;;;34.21;39.40;100539.45;1680689;84;21077;-74
2022/07/07 06:59:51;;;;;;;5.05;2.65;;;;;;;34.35;38.25;100541.42;1679181;84;21529;-76
2022/07/07 07:02:18;;;;;;;8.95;3.20;;;;;;;34.45;37.79;100544.38;1681600;84;21078;-74
2022/07/07 07:04:46;;;;;;;7.58;2.75;;;;;;;34.37;37.33;100539.34;1685264;84;21088;-75
2022/07/07 07:07:14;;;;;;;11.28;2.55;;;;;;;34.34;38.90;100539.27;1682864;83;21019;-75
2022/07/07 07:09:41;;;;;;;9.83;2.80;;;;;;;34.52;37.77;100542.45;1662949;84;21141;-76
2022/07/07 07:12:09;;;;;;;5.83;3.08;;;;;;;34.52;37.46;100542.45;1666665;85;21587;-75
2022/07/07 07:14:36;;;;;;;10.15;2.80;;;;;;;34.62;38.01;100532.56;1648409;84;21058;-76
2022/07/07 07:17:04;;;;;;;9.78;2.75;;;;;;;34.64;35.18;100537.16;1657884;84;21100;-74
2022/07/07 07:19:31;;;;;;;9.08;2.67;;;;;;;34.74;36.14;100532.11;1647253;84;21086;-75
2022/07/07 07:21:59;;;;;;;7.47;2.30;;;;;;;34.76;37.84;100530.56;1675745;83;21090;-75
2022/07/07 07:24:26;;;;;;;9.00;2.50;;;;;;;35.03;36.27;100530.44;1664723;85;21232;-75
2022/07/07 07:26:53;;;;;;;6.55;2.20;;;;;;;35.18;37.30;100527.39;1673922;84;21015;-73
2022/07/07 07:29:20;;;;;;;7.67;2.33;;;;;;;35.10;37.06;100529.03;1693326;82;21179;-74
2022/07/07 07:31:47;;;;;;;6.35;2.42;;;;;;;35.47;36.69;100527.00;1681583;84;21063;-74
2022/07/07 07:34:15;;;;;;;5.80;2.30;;;;;;;35.62;36.81;100525.71;1680900;84;21072;-74
2022/07/07 07:36:42;;;;;;;8.78;2.50;;;;;;;35.58;35.23;100524.55;1678565;84;21042;-75
2022/07/07 07:39:09;;;;;;;4.67;2.47;;;;;;;35.76;35.56;100525.80;1672099;85;21186;-74
2022/07/07 07:41:36;;;;;;;6.42;2.40;;;;;;;35.78;35.33;100525.03;1654622;85;21104;-75
2022/07/07 07:44:04;;;;;;;4.92;2.10;;;;;;;35.83;34.43;100529.68;1668285;84;21022;-74
2022/07/07 07:46:32;;;;;;;5.20;2.35;;;;;;;35.95;33.64;100527.83;1626118;87;21110;-74
2022/07/07 07:49:00;;;;;;;6.70;2.30;;;;;;;35.98;35.17;100530.02;1669045;84;21525;-74
2022/07/07 07:51:27;;;;;;;9.25;2.40;;;;;;;36.00;34.75;100523.91;1683717;84;21057;-75
2022/07/07 07:53:54;;;;;;;5.22;2.10;;;;;;;36.00;33.81;100527.12;1686316;85;21273;-72
2022/07/07 07:56:21;;;;;;;12.28;2.17;;;;;;;36.07;34.53;100521.92;1685958;85;21042;-75
2022/07/07 07:58:48;;;;;;;12.25;2.40;;;;;;;38.12;30.70;100531.31;1686142;85;21033;-74
2022/07/07 08:01:15;;;;;;;7.30;2.25;;;;;;;38.50;30.84;100528.22;1686490;85;21037;-75
2022/07/07 08:03:42;;;;;;;6.37;2.30;;;;;;;36.32;33.17;100528.87;1685919;85;21052;-76
2022/07/07 08:06:09;;;;;;;7.35;2.17;;;;;;;36.22;32.39;100525.99;1685698;85;21081;-75
2022/07/07 08:08:36;;;;;;;4.70;2.35;;;;;;;36.17;33.07;100527.22;1685733;85;21112;-74
2022/07/07 08:11:03;;;;;;;3.65;2.02;;;;;;;36.13;33.41;100525.50;1700151;83;21016;-75
2022/07/07 08:13:30;;;;;;;6.40;2.22;;;;;;;36.04;33.09;100523.72;1695574;84;21087;-75
2022/07/07 08:15:58;;;;;;;5.03;2.40;;;;;;;36.34;32.95;100528.64;1698833;83;21014;-76
2022/07/07 08:18:27;;;;;;;6.53;2.27;;;;;;;36.58;31.11;100520.80;1670621;84;21531;-72
2022/07/07 08:20:54;;;;;;;7.12;2.37;;;;;;;36.48;34.48;100522.75;1709300;83;21521;-74
2022/07/07 08:23:21;;;;;;;8.35;2.40;;;;;;;36.38;33.22;100527.92;1672242;84;21078;-74
2022/07/07 08:25:48;;;;;;;6.65;2.45;;;;;;;36.50;33.72;100523.33;1678220;84;21030;-74
2022/07/07 08:28:16;;;;;;;15.15;2.83;;;;;;;36.09;33.36;100520.33;1665881;84;21627;-74
2022/07/07 08:30:43;;;;;;;4.42;2.40;;;;;;;36.32;33.00;100520.00;1650149;85;21133;-74
2022/07/07 08:33:10;;;;;;;4.75;2.60;;;;;;;36.19;32.18;100522.43;1635634;86;21049;-78
2022/07/07 08:35:37;;;;;;;4.83;2.35;;;;;;;36.57;32.07;100525.86;1627299;87;21076;-75
2022/07/07 08:38:04;;;;;;;7.70;2.83;;;;;;;36.70;32.84;100527.45;1658936;85;21642;-77
2022/07/07 08:40:31;;;;;;;4.80;2.58;;;;;;;36.70;31.89;100526.11;1654894;84;21542;-76
2022/07/07 08:42:59;;;;;;;6.47;2.55;;;;;;;36.70;31.87;100531.47;1654400;85;21028;-76
2022/07/07 08:45:26;;;;;;;11.33;2.70;;;;;;;36.77;31.99;100525.98;1666795;84;21129;-75
2022/07/07 08:47:56;;;;;;;9.10;2.47;;;;;;;36.68;32.47;100526.88;1669803;84;21067;-74
2022/07/07 08:50:25;;;;;;;5.05;2.55;;;;;;;36.91;32.44;100531.86;1675812;84;21044;-74
2022/07/07 08:52:55;;;;;;;7.70;2.55;;;;;;;36.92;32.36;100521.40;1661526;85;21097;-74
2022/07/07 08:55:24;;;;;;;8.10;2.45;;;;;;;37.04;32.31;100519.45;1662448;85;21042;-77
2022/07/07 08:57:52;;;;;;;10.18;2.50;;;;;;;36.91;32.12;100518.45;1662989;85;21099;-80
2022/07/07 09:00:20;;;;;;;4.90;2.47;;;;;;;36.84;32.24;100516.73;1651568;86;21052;-77
2022/07/07 09:02:49;;;;;;;6.72;2.50;;;;;;;37.00;31.68;100519.66;1649722;87;21679;-77
2022/07/07 09:05:17;;;;;;;5.72;2.25;;;;;;;37.06;31.36;100520.84;1653295;85;21056;-77
2022/07/07 09:07:51;;;;;;;6.12;2.42;;;;;;;37.03;32.21;100521.34;1666245;85;21101;-75
2022/07/07 09:10:37;;;;;;;7.25;2.47;;;;;;;36.86;30.22;100518.64;1667615;85;21048;-76
2022/07/07 09:13:27;;;;;;;5.87;2.40;;;;;;;37.01;31.38;100515.40;1667876;85;21084;-76
2022/07/07 09:16:04;;;;;;;5.87;2.50;;;;;;;36.94;31.48;100516.07;1665404;85;21092;-77
2022/07/07 09:18:37;;;;;;;5.90;2.33;;;;;;;36.87;31.61;100505.50;1687479;84;21386;-76
2022/07/07 09:21:07;;;;;;;4.35;2.55;;;;;;;36.82;31.97;100510.80;1685302;84;21066;-74
2022/07/07 09:23:37;;;;;;;7.03;2.55;;;;;;;36.77;30.42;100505.33;1653759;85;21062;-76
2022/07/07 09:26:05;;;;;;;5.90;2.70;;;;;;;37.01;30.70;100506.55;1657302;85;21022;-75
2022/07/07 09:28:32;;;;;;;6.78;2.52;;;;;;;37.13;30.92;100507.30;1658136;85;21029;-75
2022/07/07 09:30:59;;;;;;;4.58;2.27;;;;;;;37.07;29.80;100506.91;1668826;84;21059;-77
2022/07/07 09:33:26;;;;;;;5.83;2.60;;;;;;;37.20;31.05;100507.14;1657192;84;21045;-74
2022/07/07 09:38:42;;;;;;;5.30;2.70;;;;;;;37.24;30.59;100494.84;1669584;83;21060;-75
2022/07/07 09:41:15;;;;;;;4.92;2.33;;;;;;;37.13;30.06;100502.44;1662623;84;21613;-75
2022/07/07 09:43:51;;;;;;;8.03;2.70;;;;;;;37.07;31.80;100503.69;1658685;84;21044;-74
2022/07/07 09:46:20;;;;;;;4.92;2.58;;;;;;;37.13;30.73;100508.65;1688967;83;21121;-74
2022/07/07 09:49:06;;;;;;;4.45;2.42;;;;;;;37.08;30.41;100505.84;1668298;84;21087;-77
2022/07/07 09:51:41;;;;;;;12.30;3.55;;;;;;;37.01;29.20;100507.89;1661154;85;21569;-76
2022/07/07 09:54:15;;;;;;;6.35;2.47;;;;;;;36.94;28.88;100499.16;1658154;85;21517;-74
2022/07/07 09:56:45;;;;;;;5.57;2.30;;;;;;;37.04;29.40;100496.11;1677431;84;21026;-75
2022/07/07 09:59:16;;;;;;;5.50;2.50;;;;;;;37.36;29.63;100498.79;1661417;84;21729;-75
2022/07/07 10:01:46;;;;;;;7.80;2.42;;;;;;;37.13;29.41;100489.03;1662611;84;21150;-74
2022/07/07 10:04:19;;;;;;;6.22;2.62;;;;;;;37.28;30.58;100498.67;1635533;85;22113;-77
2022/07/07 10:06:46;;;;;;;4.80;2.10;;;;;;;37.05;28.26;100500.44;1655610;83;21098;-74
2022/07/07 10:09:20;;;;;;;7.03;2.20;;;;;;;37.33;29.86;100492.05;1673029;84;21093;-74
2022/07/07 10:11:54;;;;;;;5.58;2.50;;;;;;;37.17;29.00;100488.31;1684503;85;21073;-75
2022/07/07 10:14:28;;;;;;;4.72;2.20;;;;;;;37.23;30.30;100483.84;1657680;85;21009;-75
2022/07/07 10:16:55;;;;;;;3.85;2.27;;;;;;;37.21;30.44;100486.77;1678114;85;20986;-73
2022/07/07 10:19:29;;;;;;;6.50;2.70;;;;;;;37.16;29.09;100485.33;1678172;85;21062;-74
2022/07/07 10:22:07;;;;;;;5.37;2.17;;;;;;;37.45;30.01;100483.88;1632027;85;21082;-73
2022/07/07 10:24:42;;;;;;;6.12;2.87;;;;;;;37.43;29.09;100472.56;1653847;85;21633;-76
2022/07/07 10:27:26;;;;;;;9.58;2.50;;;;;;;37.74;30.16;100480.55;1643204;86;21025;-75
2022/07/07 10:30:04;;;;;;;5.20;2.20;;;;;;;37.65;29.95;100480.18;1606536;88;21100;-74
2022/07/07 10:32:52;;;;;;;3.20;1.87;;;;;;;37.68;29.73;100483.70;1631213;85;21049;-74
2022/07/07 10:35:25;;;;;;;3.80;2.10;;;;;;;37.77;29.10;100480.04;1671736;84;21060;-74
2022/07/07 10:37:59;;;;;;;4.45;2.30;;;;;;;37.71;28.88;100479.69;1655563;85;21018;-74
2022/07/07 10:40:29;;;;;;;8.80;2.40;;;;;;;37.72;28.77;100475.96;1679791;85;21033;-73
2022/07/07 10:43:25;;;;;;;4.83;2.40;;;;;;;37.79;28.87;100473.89;1676213;85;21494;-75
2022/07/07 10:46:03;;;;;;;4.75;2.10;;;;;;;37.91;28.06;100471.08;1649771;85;21053;-73
2022/07/07 10:48:44;;;;;;;;;;;;;;;38.00;28.61;100476.31;1620546;86;21097;-75
2022/07/07 10:51:31;;;;;;;6.12;2.33;;;;;;;38.03;29.00;100469.61;1621516;83;20146;-75
2022/07/07 10:54:10;;;;;;;4.03;1.92;;;;;;;37.62;27.08;100471.27;1656469;83;21228;-74
2022/07/07 10:56:59;;;;;;;3.87;2.00;;;;;;;37.82;28.22;100477.43;1677775;84;21026;-75
2022/07/07 10:59:28;;;;;;;7.40;2.25;;;;;;;37.87;28.72;100475.33;1645995;85;21553;-73
2022/07/07 11:02:07;;;;;;;6.75;2.35;;;;;;;37.72;27.55;100469.24;1663564;84;20990;-75
2022/07/07 11:04:47;;;;;;;6.62;2.25;;;;;;;37.77;26.73;100465.27;1677606;85;21366;-76
2022/07/07 11:07:30;;;;;;;3.58;2.00;;;;;;;37.97;28.20;100466.05;1677106;84;21494;-74
2022/07/07 11:10:14;;;;;;;5.55;1.90;;;;;;;38.02;27.77;100467.47;1671875;85;21045;-74
2022/07/07 11:13:18;;;;;;;;;;;;;;;;;;;;;
2022/07/07 11:15:42;;;;;;;4.75;2.00;;;;;;;38.26;27.94;100466.69;1644339;86;21052;-75
2022/07/07 11:18:16;;;;;;;4.05;1.90;;;;;;;38.21;28.07;100468.50;1608701;86;21635;-75
2022/07/07 11:21:05;;;;;;;7.83;2.10;;;;;;;38.15;27.68;100466.28;1625669;88;21060;-74
2022/07/07 11:23:53;;;;;;;5.95;2.10;;;;;;;38.35;28.24;100465.69;1677453;85;21022;-75
2022/07/07 11:26:39;;;;;;;7.05;2.02;;;;;;;38.46;28.22;100467.94;1661230;84;21073;-77
2022/07/07 11:29:19;;;;;;;8.90;2.05;;;;;;;38.25;26.57;100459.67;1659184;84;21096;-75
2022/07/07 11:32:06;;;;;;;6.58;1.90;;;;;;;38.56;27.38;100459.19;1621344;86;21096;-76
2022/07/07 11:34:43;;;;;;;9.60;2.20;;;;;;;38.65;27.55;100454.44;1647606;85;21108;-76
2022/07/07 11:37:26;;;;;;;7.03;2.40;;;;;;;38.31;26.46;100461.89;1661880;85;21074;-73